createdAt,value
2023-05-22T00:01:34.096Z,18.05
2023-05-22T00:04:02.926Z,16.85
2023-05-22T00:06:30.312Z,18.17
2023-05-22T00:08:57.699Z,21.40
2023-05-22T00:11:24.984Z,16.67
2023-05-22T00:13:52.426Z,15.40
2023-05-22T00:16:19.815Z,16.63
2023-05-22T00:18:47.546Z,17.88
2023-05-22T00:21:15.011Z,19.17
2023-05-22T00:23:42.880Z,18.40
2023-05-22T00:26:10.205Z,14.68
2023-05-22T00:28:37.552Z,16.58
2023-05-22T00:31:04.995Z,18.02
2023-05-22T00:33:34.137Z,20.13
2023-05-22T00:36:01.663Z,19.67
2023-05-22T00:38:30.692Z,16.27
2023-05-22T00:40:58.043Z,16.27
2023-05-22T00:43:27.110Z,16.10
2023-05-22T00:45:54.642Z,17.95
2023-05-22T00:48:22.482Z,22.67
2023-05-22T00:50:50.493Z,15.20
2023-05-22T00:53:17.937Z,17.67
2023-05-22T00:55:45.567Z,19.30
2023-05-22T00:58:16.041Z,19.15
2023-05-22T01:00:43.704Z,18.13
2023-05-22T01:03:11.513Z,18.90
2023-05-22T01:05:39.541Z,23.40
2023-05-22T01:08:07.686Z,18.33
2023-05-22T01:10:35.829Z,19.50
2023-05-22T01:13:21.897Z,21.30
2023-05-22T01:15:53.250Z,18.33
2023-05-22T01:18:29.469Z,23.08
2023-05-22T01:21:18.349Z,22.23
2023-05-22T01:24:11.658Z,19.95
2023-05-22T01:26:59.237Z,20.00
2023-05-22T01:29:46.138Z,24.48
2023-05-22T01:32:15.346Z,22.75
2023-05-22T01:34:45.102Z,22.27
2023-05-22T01:37:13.375Z,19.85
2023-05-22T01:39:41.307Z,21.23
2023-05-22T01:42:09.441Z,18.75
2023-05-22T01:44:36.764Z,20.70
2023-05-22T01:47:05.796Z,19.50
2023-05-22T01:49:33.987Z,22.88
2023-05-22T01:52:15.861Z,19.20
2023-05-22T01:54:46.826Z,20.98
2023-05-22T01:57:19.321Z,21.80
2023-05-22T01:59:54.509Z,20.73
2023-05-22T02:02:22.618Z,19.40
2023-05-22T02:04:53.026Z,19.63
2023-05-22T02:07:22.056Z,20.88
2023-05-22T02:09:50.713Z,21.27
2023-05-22T02:12:18.170Z,21.17
2023-05-22T02:14:45.760Z,22.23
2023-05-22T02:17:13.101Z,22.90
2023-05-22T02:19:40.516Z,21.77
2023-05-22T02:22:09.931Z,22.08
2023-05-22T02:24:37.850Z,22.17
2023-05-22T02:27:05.408Z,17.63
2023-05-22T02:29:32.842Z,17.83
2023-05-22T02:32:00.697Z,22.45
2023-05-22T02:34:28.492Z,21.20
2023-05-22T02:36:56.340Z,21.83
2023-05-22T02:39:23.739Z,17.23
2023-05-22T02:41:50.986Z,16.80
2023-05-22T02:44:18.367Z,22.08
2023-05-22T02:46:45.853Z,18.25
2023-05-22T02:49:13.159Z,23.98
2023-05-22T02:51:40.702Z,23.38
2023-05-22T02:54:07.997Z,22.27
2023-05-22T02:56:36.391Z,24.30
2023-05-22T02:59:03.672Z,22.70
2023-05-22T03:01:31.007Z,25.42
2023-05-22T03:03:58.438Z,24.50
2023-05-22T03:06:25.811Z,22.90
2023-05-22T03:08:54.023Z,23.15
2023-05-22T03:11:21.615Z,19.23
2023-05-22T03:13:48.968Z,20.90
2023-05-22T03:16:16.345Z,19.58
2023-05-22T03:18:46.430Z,21.13
2023-05-22T03:21:13.801Z,20.35
2023-05-22T03:23:41.223Z,18.80
2023-05-22T03:26:08.540Z,20.52
2023-05-22T03:28:38.043Z,21.70
2023-05-22T03:31:05.861Z,20.37
2023-05-22T03:33:42.184Z,24.13
2023-05-22T03:36:09.654Z,20.42
2023-05-22T03:38:37.284Z,24.35
2023-05-22T03:41:04.687Z,21.58
2023-05-22T03:43:32.009Z,20.17
2023-05-22T03:45:59.412Z,25.80
2023-05-22T03:48:27.490Z,24.65
2023-05-22T03:50:54.812Z,23.80
2023-05-22T03:53:22.138Z,23.73
2023-05-22T03:55:49.400Z,24.27
2023-05-22T03:58:16.811Z,26.17
2023-05-22T04:00:46.271Z,20.77
2023-05-22T04:03:13.718Z,19.05
2023-05-22T04:05:41.222Z,20.33
2023-05-22T04:08:08.553Z,26.90
2023-05-22T04:10:39.104Z,20.25
2023-05-22T04:13:06.716Z,19.70
2023-05-22T04:15:34.155Z,24.40
2023-05-22T04:18:01.585Z,23.77
2023-05-22T04:20:28.990Z,20.90
2023-05-22T04:22:57.661Z,20.00
2023-05-22T04:25:24.997Z,28.13
2023-05-22T04:27:53.252Z,29.08
2023-05-22T04:30:22.101Z,24.35
2023-05-22T04:32:49.949Z,21.10
2023-05-22T04:35:18.595Z,24.50
2023-05-22T04:37:46.147Z,22.63
2023-05-22T04:40:15.195Z,21.88
2023-05-22T04:42:42.619Z,21.98
2023-05-22T04:45:10.097Z,24.40
2023-05-22T04:47:38.390Z,23.15
2023-05-22T04:50:08.009Z,22.42
2023-05-22T04:52:36.204Z,27.58
2023-05-22T04:55:05.338Z,22.33
2023-05-22T04:57:33.531Z,21.73
2023-05-22T05:00:01.265Z,26.60
2023-05-22T05:02:29.187Z,21.42
2023-05-22T05:04:56.629Z,23.60
2023-05-22T05:07:25.148Z,24.35
2023-05-22T05:09:53.068Z,25.87
2023-05-22T05:12:20.397Z,25.25
2023-05-22T05:14:47.691Z,25.45
2023-05-22T05:17:15.946Z,19.98
2023-05-22T05:19:43.372Z,22.10
2023-05-22T05:22:10.811Z,23.13
2023-05-22T05:24:38.363Z,25.02
2023-05-22T05:27:06.076Z,23.77
2023-05-22T05:29:33.544Z,24.13
2023-05-22T05:32:06.222Z,23.17
2023-05-22T05:35:06.117Z,23.13
2023-05-22T05:37:56.514Z,25.98
2023-05-22T05:40:25.092Z,24.23
2023-05-22T05:42:52.701Z,23.90
2023-05-22T05:45:24.466Z,24.77
2023-05-22T05:47:53.080Z,26.93
2023-05-22T05:50:21.016Z,23.38
2023-05-22T05:52:48.912Z,28.30
2023-05-22T05:55:18.603Z,26.02
2023-05-22T05:57:46.797Z,23.15
2023-05-22T06:00:20.711Z,26.33
2023-05-22T06:02:50.653Z,24.63
2023-05-22T06:05:34.528Z,27.27
2023-05-22T06:08:13.697Z,24.00
2023-05-22T06:10:42.081Z,25.55
2023-05-22T06:13:15.528Z,26.97
2023-05-22T06:15:42.922Z,26.73
2023-05-22T06:18:11.146Z,25.98
2023-05-22T06:20:39.779Z,26.35
2023-05-22T06:23:07.801Z,32.38
2023-05-22T06:25:35.181Z,28.90
2023-05-22T06:28:03.084Z,25.13
2023-05-22T06:30:43.267Z,24.23
2023-05-22T06:33:15.057Z,22.90
2023-05-22T06:35:43.224Z,27.05
2023-05-22T06:38:10.685Z,26.10
2023-05-22T06:40:39.559Z,24.70
2023-05-22T06:43:14.918Z,23.48
2023-05-22T06:45:55.752Z,23.60
2023-05-22T06:48:23.268Z,27.05
2023-05-22T06:51:12.752Z,25.73
2023-05-22T06:53:41.552Z,25.10
2023-05-22T06:56:17.505Z,24.75
2023-05-22T06:58:53.525Z,23.67
2023-05-22T07:01:23.445Z,21.70
2023-05-22T07:04:02.402Z,24.27
2023-05-22T07:06:51.794Z,24.52
2023-05-22T07:09:20.716Z,24.20
2023-05-22T07:11:49.363Z,28.85
2023-05-22T07:14:18.165Z,27.90
2023-05-22T07:16:46.429Z,24.23
2023-05-22T07:19:19.359Z,23.73
2023-05-22T07:21:46.898Z,22.00
2023-05-22T07:24:18.016Z,24.20
2023-05-22T07:26:48.517Z,24.52
2023-05-22T07:29:17.452Z,24.30
2023-05-22T07:31:48.107Z,21.17
2023-05-22T07:34:15.518Z,22.73
2023-05-22T07:36:44.312Z,26.90
2023-05-22T07:39:11.735Z,25.10
2023-05-22T07:41:41.134Z,24.63
2023-05-22T07:44:11.843Z,23.85
2023-05-22T07:46:39.284Z,21.38
2023-05-22T07:49:22.086Z,19.45
2023-05-22T07:51:50.489Z,23.55
2023-05-22T07:54:19.559Z,20.80
2023-05-22T07:56:50.685Z,20.58
2023-05-22T07:59:21.525Z,22.23
2023-05-22T08:01:48.911Z,24.08
2023-05-22T08:04:16.437Z,23.15
2023-05-22T08:06:44.360Z,19.33
2023-05-22T08:09:11.891Z,21.15
2023-05-22T08:11:42.147Z,20.73
2023-05-22T08:14:09.666Z,23.40
2023-05-22T08:16:37.270Z,19.73
2023-05-22T08:19:04.726Z,19.33
2023-05-22T08:21:34.405Z,17.50
2023-05-22T08:24:02.133Z,19.45
2023-05-22T08:26:31.470Z,18.73
2023-05-22T08:28:59.557Z,20.67
2023-05-22T08:31:29.275Z,19.93
2023-05-22T08:34:02.601Z,19.75
2023-05-22T08:36:33.887Z,17.23
2023-05-22T08:39:01.577Z,22.85
2023-05-22T08:41:29.255Z,26.00
2023-05-22T08:43:56.637Z,22.47
2023-05-22T08:46:28.345Z,23.05
2023-05-22T08:48:59.245Z,19.77
2023-05-22T08:51:29.304Z,15.85
2023-05-22T08:53:57.429Z,15.55
2023-05-22T08:56:26.772Z,19.43
2023-05-22T08:58:56.155Z,21.20
2023-05-22T09:01:23.947Z,18.15
2023-05-22T09:03:51.966Z,15.50
2023-05-22T09:06:19.363Z,20.65
2023-05-22T09:08:46.723Z,19.17
2023-05-22T09:11:14.188Z,19.42
2023-05-22T09:13:41.620Z,19.38
2023-05-22T09:16:13.141Z,17.40
2023-05-22T09:18:42.117Z,16.50
2023-05-22T09:21:18.129Z,17.73
2023-05-22T09:24:00.242Z,16.33
2023-05-22T09:26:29.362Z,17.20
2023-05-22T09:28:57.286Z,17.35
2023-05-22T09:31:24.727Z,19.65
2023-05-22T09:33:52.198Z,19.27
2023-05-22T09:36:19.547Z,19.13
2023-05-22T09:38:46.846Z,17.23
2023-05-22T09:41:14.103Z,17.02
2023-05-22T09:43:50.872Z,17.20
2023-05-22T09:46:18.320Z,16.20
2023-05-22T09:48:51.753Z,17.45
2023-05-22T09:51:23.825Z,15.70
2023-05-22T09:53:52.447Z,14.88
2023-05-22T09:56:31.251Z,17.13
2023-05-22T09:59:09.642Z,16.37
2023-05-22T10:01:39.895Z,19.48
2023-05-22T10:04:11.231Z,17.00
2023-05-22T10:06:39.270Z,24.75
2023-05-22T10:09:09.135Z,14.50
2023-05-22T10:11:36.803Z,15.83
2023-05-22T10:14:05.198Z,15.25
2023-05-22T10:16:34.216Z,17.98
2023-05-22T10:19:01.845Z,18.95
2023-05-22T10:21:32.080Z,16.77
2023-05-22T10:24:02.869Z,15.57
2023-05-22T10:26:30.753Z,18.65
2023-05-22T10:29:08.489Z,16.60
2023-05-22T10:31:46.303Z,15.57
2023-05-22T10:34:39.749Z,16.80
2023-05-22T10:37:17.551Z,18.97
2023-05-22T10:39:55.636Z,16.08
2023-05-22T10:42:23.013Z,18.42
2023-05-22T10:44:50.490Z,18.63
2023-05-22T10:47:17.829Z,16.00
2023-05-22T10:49:45.523Z,11.83
2023-05-22T10:52:16.173Z,16.15
2023-05-22T10:54:44.311Z,15.88
2023-05-22T10:57:14.486Z,14.15
2023-05-22T10:59:41.778Z,13.88
2023-05-22T11:02:20.714Z,14.43
2023-05-22T11:04:48.403Z,14.50
2023-05-22T11:07:16.001Z,12.82
2023-05-22T11:09:45.824Z,12.82
2023-05-22T11:12:17.571Z,12.60
2023-05-22T11:15:03.266Z,12.07
2023-05-22T11:17:31.197Z,12.43
2023-05-22T11:20:06.036Z,13.50
2023-05-22T11:22:34.863Z,13.35
2023-05-22T11:25:04.339Z,15.27
2023-05-22T11:27:32.263Z,11.87
2023-05-22T11:30:01.771Z,11.63
2023-05-22T11:32:29.375Z,11.63
2023-05-22T11:34:57.559Z,13.00
2023-05-22T11:37:25.142Z,16.38
2023-05-22T11:39:56.637Z,18.00
2023-05-22T11:42:24.125Z,15.95
2023-05-22T11:44:51.809Z,16.95
2023-05-22T11:47:19.197Z,15.35
2023-05-22T11:49:46.823Z,17.35
2023-05-22T11:52:14.285Z,14.93
2023-05-22T11:54:41.604Z,19.00
2023-05-22T11:57:09.466Z,15.27
2023-05-22T11:59:37.058Z,18.05
2023-05-22T12:02:04.419Z,16.02
2023-05-22T12:04:33.312Z,16.93
2023-05-22T12:07:00.690Z,15.68
2023-05-22T12:09:28.660Z,13.30
2023-05-22T12:11:59.816Z,15.60
2023-05-22T12:14:31.528Z,18.25
2023-05-22T12:16:59.629Z,16.37
2023-05-22T12:19:27.800Z,14.65
2023-05-22T12:21:55.229Z,16.63
2023-05-22T12:24:25.669Z,14.88
2023-05-22T12:26:53.871Z,16.52
2023-05-22T12:29:24.302Z,13.87
2023-05-22T12:31:52.347Z,16.92
2023-05-22T12:34:19.803Z,19.58
2023-05-22T12:36:47.813Z,15.38
2023-05-22T12:39:19.344Z,17.48
2023-05-22T12:41:46.813Z,16.23
2023-05-22T12:44:16.364Z,15.38
2023-05-22T12:46:44.015Z,15.88
2023-05-22T12:49:11.594Z,14.52
2023-05-22T12:51:39.073Z,17.30
2023-05-22T12:54:06.425Z,14.97
2023-05-22T12:56:33.995Z,16.58
2023-05-22T12:59:01.346Z,16.02
2023-05-22T13:01:28.861Z,20.08
2023-05-22T13:03:56.334Z,15.65
2023-05-22T13:06:23.671Z,15.47
2023-05-22T13:08:51.647Z,17.60
2023-05-22T13:11:20.153Z,18.60
2023-05-22T13:13:47.476Z,19.38
2023-05-22T13:16:14.913Z,19.65
2023-05-22T13:18:42.298Z,18.17
2023-05-22T13:21:09.647Z,17.10
2023-05-22T13:23:37.078Z,16.55
2023-05-22T13:26:04.449Z,19.48
2023-05-22T13:28:31.839Z,16.55
2023-05-22T13:30:59.371Z,12.27
2023-05-22T13:33:26.850Z,13.60
2023-05-22T13:35:54.530Z,11.55
2023-05-22T13:38:21.809Z,14.98
2023-05-22T13:40:49.214Z,14.52
2023-05-22T13:43:16.666Z,12.63
2023-05-22T13:45:43.968Z,12.20
2023-05-22T13:48:11.437Z,11.70
2023-05-22T13:50:38.812Z,11.18
2023-05-22T13:53:06.173Z,9.07
2023-05-22T13:55:33.461Z,9.53
2023-05-22T13:58:00.820Z,9.02
2023-05-22T14:00:28.120Z,8.23
2023-05-22T14:02:55.561Z,7.35
2023-05-22T14:05:24.255Z,10.88
2023-05-22T14:07:51.878Z,6.80
2023-05-22T14:10:19.250Z,8.35
2023-05-22T14:12:46.612Z,8.82
2023-05-22T14:15:16.022Z,7.32
2023-05-22T14:17:43.434Z,8.00
2023-05-22T14:20:11.084Z,8.27
2023-05-22T14:22:55.439Z,7.72
2023-05-22T14:25:23.720Z,7.18
2023-05-22T14:27:51.111Z,8.57
2023-05-22T14:30:18.663Z,7.88
2023-05-22T14:32:46.889Z,7.27
2023-05-22T14:35:16.660Z,7.45
2023-05-22T14:37:44.382Z,8.18
2023-05-22T14:40:11.802Z,5.90
2023-05-22T14:42:39.663Z,7.65
2023-05-22T14:45:07.151Z,7.17
2023-05-22T14:47:34.571Z,6.60
2023-05-22T14:50:14.806Z,10.48
2023-05-22T14:52:46.078Z,7.65
2023-05-22T14:55:13.576Z,15.40
2023-05-22T14:57:40.929Z,10.03
2023-05-22T15:00:12.170Z,10.02
2023-05-22T15:02:39.977Z,9.68
2023-05-22T15:05:07.952Z,11.73
2023-05-22T15:10:06.534Z,5.90
2023-05-22T15:12:33.829Z,8.80
2023-05-22T15:15:01.456Z,7.80
2023-05-22T15:17:28.858Z,13.52
2023-05-22T15:19:56.345Z,7.20
2023-05-22T15:22:23.669Z,8.33
2023-05-22T15:25:03.587Z,10.38
2023-05-22T15:27:30.916Z,8.43
2023-05-22T15:29:58.246Z,7.50
2023-05-22T15:32:25.705Z,5.45
2023-05-22T15:34:53.069Z,8.30
2023-05-22T15:37:20.390Z,6.20
2023-05-22T15:39:47.698Z,6.70
2023-05-22T15:42:15.063Z,6.72
2023-05-22T15:44:42.336Z,4.68
2023-05-22T15:47:09.735Z,7.80
2023-05-22T15:49:37.089Z,6.10
2023-05-22T15:52:04.413Z,6.10
2023-05-22T15:54:31.740Z,5.18
2023-05-22T15:56:59.130Z,5.80
2023-05-22T15:59:26.539Z,6.37
2023-05-22T16:01:53.881Z,6.93
2023-05-22T16:04:21.205Z,6.15
2023-05-22T16:06:48.507Z,6.22
2023-05-22T16:09:16.324Z,8.98
2023-05-22T16:11:43.636Z,5.10
2023-05-22T16:14:10.992Z,6.25
2023-05-22T16:16:38.440Z,5.70
2023-05-22T16:19:05.801Z,7.05
2023-05-22T16:21:33.179Z,5.15
2023-05-22T16:24:00.575Z,5.73
2023-05-22T16:26:27.847Z,5.38
2023-05-22T16:28:55.205Z,5.95
2023-05-22T16:31:22.542Z,6.30
2023-05-22T16:33:49.982Z,6.07
2023-05-22T16:36:17.296Z,5.53
2023-05-22T16:38:44.682Z,4.05
2023-05-22T16:41:11.965Z,7.25
2023-05-22T16:43:39.702Z,6.47
2023-05-22T16:46:07.103Z,6.80
2023-05-22T16:48:34.362Z,4.73
2023-05-22T16:51:01.658Z,6.90
2023-05-22T16:53:29.027Z,6.35
2023-05-22T16:55:56.417Z,5.55
2023-05-22T16:58:23.836Z,5.20
2023-05-22T17:00:51.300Z,5.67
2023-05-22T17:03:18.803Z,5.82
2023-05-22T17:05:47.421Z,3.78
2023-05-22T17:08:14.799Z,6.88
2023-05-22T17:10:42.224Z,5.90
2023-05-22T17:13:09.540Z,6.33
2023-05-22T17:15:36.911Z,5.20
2023-05-22T17:18:04.493Z,4.53
2023-05-22T17:20:34.113Z,7.22
2023-05-22T17:23:01.775Z,6.03
2023-05-22T17:25:29.162Z,7.53
2023-05-22T17:27:56.755Z,6.20
2023-05-22T17:30:24.192Z,5.30
2023-05-22T17:32:53.463Z,5.75
2023-05-22T17:35:20.899Z,7.82
2023-05-22T17:37:48.238Z,5.20
2023-05-22T17:40:15.668Z,4.40
2023-05-22T17:42:42.985Z,5.78
2023-05-22T17:45:10.791Z,7.32
2023-05-22T17:47:38.093Z,4.60
2023-05-22T17:50:05.660Z,7.83
2023-05-22T17:52:32.984Z,6.45
2023-05-22T17:55:00.319Z,6.13
2023-05-22T17:57:27.664Z,4.85
2023-05-22T17:59:55.009Z,6.75
2023-05-22T18:02:22.417Z,7.47
2023-05-22T18:04:49.770Z,4.90
2023-05-22T18:07:17.848Z,6.97
2023-05-22T18:09:45.155Z,5.95
2023-05-22T18:12:30.229Z,5.32
2023-05-22T18:14:58.736Z,7.07
2023-05-22T18:17:26.546Z,5.43
2023-05-22T18:19:53.944Z,7.68
2023-05-22T18:22:21.886Z,5.40
2023-05-22T18:24:49.235Z,5.03
2023-05-22T18:27:16.943Z,5.63
2023-05-22T18:29:44.352Z,4.53
2023-05-22T18:32:13.614Z,7.15
2023-05-22T18:34:41.088Z,6.45
2023-05-22T18:37:08.634Z,11.15
2023-05-22T18:39:37.367Z,8.53
2023-05-22T18:42:04.837Z,13.98
2023-05-22T18:44:32.138Z,14.20
2023-05-22T18:46:59.527Z,7.85
2023-05-22T18:49:26.945Z,6.30
2023-05-22T18:51:54.347Z,6.33
2023-05-22T18:54:21.706Z,12.43
2023-05-22T18:56:49.020Z,9.73
2023-05-22T18:59:16.260Z,7.38
2023-05-22T19:01:43.653Z,8.95
2023-05-22T19:04:11.049Z,7.53
2023-05-22T19:06:41.973Z,7.25
2023-05-22T19:09:10.055Z,7.13
2023-05-22T19:11:37.386Z,8.25
2023-05-22T19:14:04.729Z,6.40
2023-05-22T19:16:32.063Z,6.30
2023-05-22T19:18:59.549Z,7.82
2023-05-22T19:21:26.942Z,6.32
2023-05-22T19:23:54.247Z,6.05
2023-05-22T19:26:21.636Z,8.13
2023-05-22T19:28:49.043Z,7.27
2023-05-22T19:31:16.557Z,9.02
2023-05-22T19:33:43.924Z,5.30
2023-05-22T19:36:11.254Z,9.38
2023-05-22T19:38:38.572Z,11.35
2023-05-22T19:41:05.927Z,10.93
2023-05-22T19:43:33.460Z,8.93
2023-05-22T19:46:00.878Z,11.60
2023-05-22T19:48:29.846Z,9.18
2023-05-22T19:50:57.107Z,9.23
2023-05-22T19:53:24.492Z,13.33
2023-05-22T19:55:51.858Z,13.13
2023-05-22T19:58:19.815Z,10.48
2023-05-22T20:00:48.610Z,11.05
2023-05-22T20:03:16.065Z,11.05
2023-05-22T20:05:43.451Z,11.67
2023-05-22T20:08:10.780Z,9.40
2023-05-22T20:10:38.293Z,13.45
2023-05-22T20:13:05.947Z,10.20
2023-05-22T20:15:33.280Z,11.05
2023-05-22T20:18:02.477Z,11.40
2023-05-22T20:20:30.120Z,12.40
2023-05-22T20:22:59.051Z,11.20
2023-05-22T20:25:26.411Z,11.45
2023-05-22T20:27:53.763Z,14.45
2023-05-22T20:30:21.112Z,20.60
2023-05-22T20:32:48.414Z,18.92
2023-05-22T20:35:20.229Z,17.10
2023-05-22T20:37:47.740Z,18.77
2023-05-22T20:40:16.007Z,14.48
2023-05-22T20:42:43.352Z,17.00
2023-05-22T20:45:13.601Z,15.88
2023-05-22T20:47:41.677Z,14.48
2023-05-22T20:50:09.280Z,14.20
2023-05-22T20:52:37.316Z,10.02
2023-05-22T20:55:05.180Z,10.97
2023-05-22T20:57:32.531Z,9.23
2023-05-22T20:59:59.808Z,10.73
2023-05-22T21:02:27.194Z,9.13
2023-05-22T21:04:54.545Z,8.50
2023-05-22T21:07:21.944Z,8.33
2023-05-22T21:09:49.315Z,9.18
2023-05-22T21:12:16.749Z,7.88
2023-05-22T21:14:44.151Z,7.55
2023-05-22T21:17:11.502Z,7.40
2023-05-22T21:19:38.901Z,7.47
2023-05-22T21:22:06.357Z,8.02
2023-05-22T21:24:33.698Z,7.45
2023-05-22T21:27:01.044Z,7.47
2023-05-22T21:29:28.367Z,6.35
2023-05-22T21:31:55.719Z,7.67
2023-05-22T21:34:23.170Z,6.68
2023-05-22T21:36:51.107Z,7.32
2023-05-22T21:39:18.397Z,8.02
2023-05-22T21:41:46.081Z,6.20
2023-05-22T21:44:14.440Z,7.37
2023-05-22T21:46:41.768Z,7.82
2023-05-22T21:49:09.764Z,6.53
2023-05-22T21:51:37.088Z,6.45
2023-05-22T21:54:04.478Z,5.00
2023-05-22T21:56:31.786Z,5.60
2023-05-22T21:58:59.651Z,5.95
2023-05-22T22:01:27.104Z,7.70
2023-05-22T22:03:54.515Z,5.38
2023-05-22T22:06:21.897Z,6.60
2023-05-22T22:08:49.310Z,6.77
2023-05-22T22:11:16.659Z,6.03
2023-05-22T22:13:44.053Z,6.00
2023-05-22T22:16:11.464Z,6.07
2023-05-22T22:18:40.664Z,6.30
2023-05-22T22:21:08.008Z,6.17
2023-05-22T22:23:35.523Z,6.72
2023-05-22T22:26:02.844Z,6.05
2023-05-22T22:28:30.188Z,5.85
2023-05-22T22:30:57.540Z,6.20
2023-05-22T22:33:24.890Z,7.10
2023-05-22T22:35:53.209Z,6.82
2023-05-22T22:38:20.550Z,7.05
2023-05-22T22:40:47.842Z,5.95
2023-05-22T22:43:15.273Z,7.75
2023-05-22T22:45:42.800Z,6.03
2023-05-22T22:48:10.198Z,8.80
2023-05-22T22:50:37.547Z,5.68
2023-05-22T22:53:05.910Z,7.00
2023-05-22T22:55:33.358Z,6.70
2023-05-22T22:58:01.930Z,6.97
2023-05-22T23:00:29.290Z,7.55
2023-05-22T23:02:56.677Z,8.00
2023-05-22T23:05:24.089Z,8.73
2023-05-22T23:07:51.447Z,5.68
2023-05-22T23:10:18.785Z,8.27
2023-05-22T23:12:48.209Z,7.00
2023-05-22T23:15:15.879Z,6.55
2023-05-22T23:17:43.288Z,7.60
2023-05-22T23:20:11.148Z,8.85
2023-05-22T23:22:38.454Z,8.97
2023-05-22T23:25:06.150Z,9.60
2023-05-22T23:27:33.440Z,10.93
2023-05-22T23:30:00.926Z,12.38
2023-05-22T23:32:28.454Z,12.07
2023-05-22T23:34:55.779Z,12.30
2023-05-22T23:37:23.247Z,14.75
2023-05-22T23:39:50.609Z,11.35
2023-05-22T23:42:17.957Z,13.18
2023-05-22T23:44:45.352Z,12.90
2023-05-22T23:47:12.643Z,14.03
2023-05-22T23:49:39.905Z,14.65
2023-05-22T23:52:08.069Z,16.92
2023-05-22T23:54:35.452Z,14.65
2023-05-22T23:57:02.743Z,17.55
2023-05-22T23:59:30.134Z,14.90
